createdAt,value
2018-03-01T00:00:26.176Z,35.80
2018-03-01T00:00:58.215Z,35.90
2018-03-01T00:01:30.254Z,35.90
2018-03-01T00:02:03.042Z,36.00
2018-03-01T00:02:35.066Z,35.90
2018-03-01T00:03:07.872Z,36.00
2018-03-01T00:03:39.908Z,36.00
2018-03-01T00:04:11.943Z,35.90
2018-03-01T00:04:44.742Z,36.00
2018-03-01T00:05:16.790Z,35.90
2018-03-01T00:05:48.822Z,36.00
2018-03-01T00:06:21.685Z,36.10
2018-03-01T00:06:54.478Z,36.10
2018-03-01T00:07:26.507Z,36.10
2018-03-01T00:07:59.305Z,36.10
2018-03-01T00:08:31.346Z,36.10
2018-03-01T00:09:03.371Z,36.10
2018-03-01T00:09:36.168Z,36.10
2018-03-01T00:10:08.193Z,36.10
2018-03-01T00:10:40.989Z,36.20
2018-03-01T00:11:13.012Z,36.20
2018-03-01T00:11:45.810Z,36.20
2018-03-01T00:12:17.838Z,36.10
2018-03-01T00:12:50.643Z,36.20
2018-03-01T00:13:22.675Z,36.20
2018-03-01T00:13:54.705Z,36.20
2018-03-01T00:14:27.502Z,36.30
2018-03-01T00:14:59.532Z,36.30
2018-03-01T00:15:32.324Z,36.30
2018-03-01T00:16:04.374Z,36.30
2018-03-01T00:16:36.418Z,36.30
2018-03-01T00:17:08.479Z,36.30
2018-03-01T00:17:40.536Z,36.30
2018-03-01T00:18:12.565Z,36.40
2018-03-01T00:18:44.626Z,36.40
2018-03-01T00:19:16.653Z,36.40
2018-03-01T00:19:49.445Z,36.40
2018-03-01T00:20:21.476Z,36.40
2018-03-01T00:20:54.283Z,36.40
2018-03-01T00:21:26.346Z,36.40
2018-03-01T00:21:58.382Z,36.40
2018-03-01T00:22:30.419Z,36.40
2018-03-01T00:23:02.450Z,36.40
2018-03-01T00:23:35.243Z,36.40
2018-03-01T00:24:07.278Z,36.40
2018-03-01T00:24:40.121Z,36.40
2018-03-01T00:25:12.149Z,36.40
2018-03-01T00:25:44.195Z,36.40
2018-03-01T00:26:16.221Z,36.40
2018-03-01T00:26:48.262Z,36.40
2018-03-01T00:27:20.298Z,36.50
2018-03-01T00:27:53.081Z,36.50
2018-03-01T00:28:25.133Z,36.50
2018-03-01T00:28:57.149Z,36.50
2018-03-01T00:29:29.172Z,36.50
2018-03-01T00:30:01.197Z,37.10
2018-03-01T00:30:33.226Z,36.50
2018-03-01T00:31:05.262Z,36.60
2018-03-01T00:31:37.301Z,36.60
2018-03-01T00:32:09.352Z,36.60
2018-03-01T00:32:41.397Z,36.60
2018-03-01T00:33:13.469Z,36.60
2018-03-01T00:33:46.288Z,36.70
2018-03-01T00:34:18.301Z,36.60
2018-03-01T00:34:51.098Z,36.70
2018-03-01T00:35:23.125Z,36.60
2018-03-01T00:35:55.919Z,36.60
2018-03-01T00:36:27.944Z,36.60
2018-03-01T00:37:00.753Z,36.70
2018-03-01T00:37:32.778Z,36.60
2018-03-01T00:38:04.800Z,36.70
2018-03-01T00:38:37.587Z,37.40
2018-03-01T00:39:09.640Z,36.70
2018-03-01T00:39:41.641Z,36.70
2018-03-01T00:40:13.678Z,36.70
2018-03-01T00:40:45.725Z,36.70
2018-03-01T00:41:17.759Z,36.70
2018-03-01T00:41:49.792Z,36.70
2018-03-01T00:42:21.825Z,36.80
2018-03-01T00:42:54.660Z,36.90
2018-03-01T00:43:26.673Z,36.70
2018-03-01T00:43:58.713Z,36.80
2018-03-01T00:44:31.524Z,36.80
2018-03-01T00:45:03.543Z,36.80
2018-03-01T00:45:35.578Z,36.80
2018-03-01T00:46:08.394Z,36.80
2018-03-01T00:46:40.417Z,36.80
2018-03-01T00:47:12.444Z,36.80
2018-03-01T00:47:45.233Z,36.90
2018-03-01T00:48:17.272Z,36.80
2018-03-01T00:48:50.111Z,36.90
2018-03-01T00:49:22.146Z,36.80
2018-03-01T00:49:54.193Z,36.80
2018-03-01T00:50:26.213Z,36.90
2018-03-01T00:50:58.242Z,36.90
2018-03-01T00:51:31.030Z,36.90
2018-03-01T00:52:03.060Z,36.80
2018-03-01T00:52:35.849Z,36.90
2018-03-01T00:53:07.883Z,36.90
2018-03-01T00:53:40.723Z,37.00
2018-03-01T00:54:12.705Z,36.90
2018-03-01T00:54:45.494Z,37.00
2018-03-01T00:55:17.534Z,37.00
2018-03-01T00:55:50.336Z,37.00
2018-03-01T00:56:22.343Z,37.00
2018-03-01T00:56:55.141Z,37.00
2018-03-01T00:57:27.177Z,37.00
2018-03-01T00:57:59.970Z,37.00
2018-03-01T00:58:31.980Z,37.10
2018-03-01T00:59:04.769Z,37.00
2018-03-01T00:59:36.806Z,37.00
2018-03-01T01:00:09.595Z,37.00
2018-03-01T01:00:41.627Z,37.10
2018-03-01T01:01:14.486Z,37.10
2018-03-01T01:01:46.509Z,37.10
2018-03-01T01:02:18.535Z,37.10
2018-03-01T01:02:50.567Z,37.10
2018-03-01T01:03:22.597Z,37.10
2018-03-01T01:03:55.380Z,37.10
2018-03-01T01:04:27.415Z,37.10
2018-03-01T01:05:00.208Z,37.10
2018-03-01T01:05:32.239Z,37.10
2018-03-01T01:06:05.067Z,37.70
2018-03-01T01:06:37.104Z,37.20
2018-03-01T01:07:09.143Z,37.20
2018-03-01T01:07:41.189Z,37.20
2018-03-01T01:08:13.209Z,37.20
2018-03-01T01:08:45.998Z,37.20
2018-03-01T01:09:18.036Z,37.20
2018-03-01T01:09:50.825Z,37.20
2018-03-01T01:10:22.857Z,37.20
2018-03-01T01:10:55.655Z,37.20
2018-03-01T01:11:27.736Z,37.10
2018-03-01T01:11:59.798Z,37.20
2018-03-01T01:12:31.783Z,37.20
2018-03-01T01:13:03.813Z,37.20
2018-03-01T01:13:35.828Z,37.20
2018-03-01T01:14:07.858Z,37.40
2018-03-01T01:14:39.890Z,37.20
2018-03-01T01:15:12.686Z,37.30
2018-03-01T01:15:44.730Z,37.20
2018-03-01T01:16:16.748Z,37.20
2018-03-01T01:16:49.551Z,37.30
2018-03-01T01:17:21.588Z,37.20
2018-03-01T01:17:53.616Z,37.20
2018-03-01T01:18:26.414Z,37.30
2018-03-01T01:18:58.443Z,37.20
2018-03-01T01:19:30.499Z,37.30
2018-03-01T01:20:03.302Z,37.30
2018-03-01T01:20:35.391Z,37.20
2018-03-01T01:21:07.422Z,37.30
2018-03-01T01:21:39.452Z,37.30
2018-03-01T01:22:11.507Z,37.30
2018-03-01T01:22:43.546Z,37.30
2018-03-01T01:23:15.570Z,37.30
2018-03-01T01:23:48.372Z,37.30
2018-03-01T01:24:20.424Z,37.30
2018-03-01T01:24:53.190Z,37.30
2018-03-01T01:25:25.224Z,37.30
2018-03-01T01:25:57.273Z,37.30
2018-03-01T01:26:30.066Z,37.30
2018-03-01T01:27:02.089Z,37.30
2018-03-01T01:27:34.894Z,37.30
2018-03-01T01:28:06.915Z,37.30
2018-03-01T01:28:39.708Z,37.30
2018-03-01T01:29:11.732Z,37.30
2018-03-01T01:29:43.770Z,37.40
2018-03-01T01:30:16.570Z,37.90
2018-03-01T01:30:48.599Z,37.30
2018-03-01T01:31:21.406Z,37.40
2018-03-01T01:31:53.442Z,37.30
2018-03-01T01:32:25.485Z,37.40
2018-03-01T01:32:57.523Z,37.40
2018-03-01T01:33:29.593Z,37.40
2018-03-01T01:34:01.658Z,37.40
2018-03-01T01:34:33.697Z,37.40
2018-03-01T01:35:05.724Z,37.40
2018-03-01T01:35:38.526Z,37.40
2018-03-01T01:36:10.549Z,37.40
2018-03-01T01:36:43.346Z,37.40
2018-03-01T01:37:15.375Z,37.40
2018-03-01T01:37:48.162Z,37.40
2018-03-01T01:38:20.215Z,37.40
2018-03-01T01:38:52.235Z,37.40
2018-03-01T01:39:25.031Z,37.40
2018-03-01T01:39:57.069Z,37.40
2018-03-01T01:40:29.182Z,37.40
2018-03-01T01:41:01.182Z,37.40
2018-03-01T01:41:33.216Z,37.40
2018-03-01T01:42:05.257Z,37.40
2018-03-01T01:42:38.192Z,37.50
2018-03-01T01:43:10.208Z,37.40
2018-03-01T01:43:42.235Z,37.40
2018-03-01T01:44:15.053Z,37.50
2018-03-01T01:44:47.084Z,37.40
2018-03-01T01:45:19.116Z,37.40
2018-03-01T01:45:51.957Z,37.50
2018-03-01T01:46:23.966Z,37.40
2018-03-01T01:46:55.991Z,37.50
2018-03-01T01:47:28.018Z,37.50
2018-03-01T01:48:00.041Z,37.50
2018-03-01T01:48:32.085Z,37.50
2018-03-01T01:49:04.116Z,37.50
2018-03-01T01:49:36.137Z,37.60
2018-03-01T01:50:08.935Z,37.60
2018-03-01T01:50:40.958Z,37.50
2018-03-01T01:51:13.753Z,37.60
2018-03-01T01:51:45.796Z,37.60
2018-03-01T01:52:17.822Z,37.60
2018-03-01T01:52:50.616Z,37.60
2018-03-01T01:53:22.644Z,37.50
2018-03-01T01:53:55.437Z,37.60
2018-03-01T01:54:27.460Z,37.60
2018-03-01T01:54:59.505Z,37.60
2018-03-01T01:55:31.552Z,37.60
2018-03-01T01:56:03.577Z,37.60
2018-03-01T01:56:35.621Z,37.60
2018-03-01T01:57:07.644Z,37.60
2018-03-01T01:57:39.860Z,37.60
2018-03-01T01:58:11.878Z,37.60
2018-03-01T01:58:43.898Z,37.60
2018-03-01T01:59:15.952Z,37.60
2018-03-01T01:59:47.980Z,37.60
2018-03-01T02:00:20.772Z,37.60
2018-03-01T02:00:52.882Z,37.50
2018-03-01T02:01:24.909Z,37.60
2018-03-01T02:01:56.917Z,37.60
2018-03-01T02:02:28.966Z,37.60
2018-03-01T02:03:01.765Z,37.60
2018-03-01T02:03:33.796Z,37.60
2018-03-01T02:04:05.827Z,37.50
2018-03-01T02:04:38.624Z,37.60
2018-03-01T02:05:10.662Z,37.60
2018-03-01T02:05:42.703Z,37.60
2018-03-01T02:06:15.510Z,37.70
2018-03-01T02:06:47.641Z,37.60
2018-03-01T02:07:19.690Z,37.60
2018-03-01T02:07:51.715Z,37.60
2018-03-01T02:08:23.763Z,37.60
2018-03-01T02:08:55.881Z,37.60
2018-03-01T02:09:27.910Z,37.60
2018-03-01T02:09:59.944Z,37.60
2018-03-01T02:10:31.967Z,37.60
2018-03-01T02:11:04.017Z,37.60
2018-03-01T02:11:36.089Z,37.60
2018-03-01T02:12:08.891Z,37.70
2018-03-01T02:12:40.986Z,37.60
2018-03-01T02:13:12.987Z,37.70
2018-03-01T02:13:45.023Z,37.70
2018-03-01T02:14:17.104Z,37.60
2018-03-01T02:14:49.836Z,37.70
2018-03-01T02:15:21.861Z,37.60
2018-03-01T02:15:53.898Z,37.70
2018-03-01T02:16:25.974Z,37.70
2018-03-01T02:16:58.010Z,37.70
2018-03-01T02:17:30.057Z,37.70
2018-03-01T02:18:02.130Z,37.60
2018-03-01T02:18:34.156Z,37.70
2018-03-01T02:19:06.211Z,37.70
2018-03-01T02:19:38.238Z,37.70
2018-03-01T02:20:10.269Z,37.70
2018-03-01T02:20:42.315Z,37.60
2018-03-01T02:21:14.359Z,37.70
2018-03-01T02:21:47.157Z,37.70
2018-03-01T02:22:19.183Z,37.60
2018-03-01T02:22:51.296Z,37.60
2018-03-01T02:23:23.296Z,37.70
2018-03-01T02:23:55.333Z,37.70
2018-03-01T02:24:28.128Z,37.70
2018-03-01T02:25:00.146Z,37.60
2018-03-01T02:25:32.177Z,37.60
2018-03-01T02:26:04.202Z,37.70
2018-03-01T02:26:36.232Z,38.40
2018-03-01T02:27:08.274Z,37.70
2018-03-01T02:27:40.306Z,37.70
2018-03-01T02:28:13.100Z,37.70
2018-03-01T02:28:45.134Z,37.70
2018-03-01T02:29:17.152Z,37.70
2018-03-01T02:29:49.187Z,37.70
2018-03-01T02:30:21.249Z,38.30
2018-03-01T02:30:53.244Z,37.70
2018-03-01T02:31:25.286Z,37.70
2018-03-01T02:31:57.306Z,37.70
2018-03-01T02:32:30.111Z,38.30
2018-03-01T02:33:02.184Z,37.70
2018-03-01T02:33:34.209Z,37.70
2018-03-01T02:34:06.266Z,37.70
2018-03-01T02:34:38.355Z,37.70
2018-03-01T02:35:10.425Z,37.70
2018-03-01T02:35:43.152Z,37.80
2018-03-01T02:36:15.256Z,37.80
2018-03-01T02:36:47.493Z,37.80
2018-03-01T02:37:19.514Z,37.80
2018-03-01T02:37:51.546Z,37.80
2018-03-01T02:38:23.585Z,37.80
2018-03-01T02:38:56.377Z,37.80
2018-03-01T02:39:28.422Z,37.70
2018-03-01T02:40:00.463Z,37.70
2018-03-01T02:40:33.261Z,38.30
2018-03-01T02:41:05.285Z,37.70
2018-03-01T02:41:37.402Z,37.70
2018-03-01T02:42:09.425Z,37.70
2018-03-01T02:42:41.462Z,37.70
2018-03-01T02:43:13.489Z,37.70
2018-03-01T02:43:45.520Z,37.80
2018-03-01T02:44:18.329Z,37.80
2018-03-01T02:44:50.358Z,37.80
2018-03-01T02:45:23.155Z,37.80
2018-03-01T02:45:55.188Z,37.80
2018-03-01T02:46:27.222Z,37.80
2018-03-01T02:47:00.019Z,37.80
2018-03-01T02:47:32.066Z,37.80
2018-03-01T02:48:04.089Z,37.80
2018-03-01T02:48:36.894Z,37.80
2018-03-01T02:49:08.958Z,37.70
2018-03-01T02:49:40.991Z,37.80
2018-03-01T02:50:13.026Z,37.70
2018-03-01T02:50:45.061Z,37.70
2018-03-01T02:51:17.867Z,37.80
2018-03-01T02:51:49.895Z,37.80
2018-03-01T02:52:22.690Z,37.80
2018-03-01T02:52:54.738Z,37.80
2018-03-01T02:53:26.755Z,37.80
2018-03-01T02:53:59.546Z,37.90
2018-03-01T02:54:31.616Z,37.80
2018-03-01T02:55:03.638Z,37.80
2018-03-01T02:55:36.430Z,37.90
2018-03-01T02:56:08.448Z,37.80
2018-03-01T02:56:41.241Z,37.90
2018-03-01T02:57:13.302Z,37.80
2018-03-01T02:57:45.335Z,37.90
2018-03-01T02:58:17.362Z,37.90
2018-03-01T02:58:49.504Z,37.90
2018-03-01T02:59:21.509Z,37.90
2018-03-01T02:59:53.558Z,37.90
2018-03-01T03:00:25.595Z,37.90
2018-03-01T03:00:57.626Z,37.90
2018-03-01T03:01:30.413Z,37.90
2018-03-01T03:02:02.456Z,37.90
2018-03-01T03:02:35.296Z,37.90
2018-03-01T03:03:07.321Z,37.80
2018-03-01T03:03:39.352Z,37.90
2018-03-01T03:04:11.383Z,37.90
2018-03-01T03:04:44.177Z,37.90
2018-03-01T03:05:16.214Z,37.90
2018-03-01T03:05:49.013Z,37.90
2018-03-01T03:06:21.052Z,37.90
2018-03-01T03:06:53.201Z,37.90
2018-03-01T03:07:25.278Z,37.90
2018-03-01T03:07:57.350Z,37.90
2018-03-01T03:08:29.373Z,37.90
2018-03-01T03:09:01.447Z,37.90
2018-03-01T03:09:33.483Z,37.90
2018-03-01T03:10:05.552Z,37.90
2018-03-01T03:10:37.618Z,37.90
2018-03-01T03:11:09.659Z,37.90
2018-03-01T03:11:41.740Z,38.50
2018-03-01T03:12:13.869Z,37.90
2018-03-01T03:12:45.947Z,37.90
2018-03-01T03:13:18.753Z,38.00
2018-03-01T03:13:50.895Z,38.00
2018-03-01T03:14:22.919Z,38.00
2018-03-01T03:14:55.727Z,37.90
2018-03-01T03:15:27.762Z,37.90
2018-03-01T03:15:59.790Z,37.90
2018-03-01T03:16:32.579Z,37.90
2018-03-01T03:17:04.606Z,37.90
2018-03-01T03:17:36.642Z,37.90
2018-03-01T03:18:08.682Z,38.00
2018-03-01T03:18:40.802Z,38.40
2018-03-01T03:19:12.857Z,38.00
2018-03-01T03:19:44.884Z,38.00
2018-03-01T03:20:16.950Z,38.00
2018-03-01T03:20:48.991Z,38.00
2018-03-01T03:21:21.018Z,38.00
2018-03-01T03:21:53.813Z,38.10
2018-03-01T03:22:25.836Z,38.00
2018-03-01T03:22:58.631Z,38.10
2018-03-01T03:23:30.666Z,38.00
2018-03-01T03:24:03.451Z,38.00
2018-03-01T03:24:35.622Z,37.90
2018-03-01T03:25:07.651Z,38.00
2018-03-01T03:25:39.780Z,38.00
2018-03-01T03:26:11.825Z,38.00
2018-03-01T03:26:43.864Z,38.00
2018-03-01T03:27:15.927Z,38.00
2018-03-01T03:27:47.983Z,38.60
2018-03-01T03:28:20.128Z,38.00
2018-03-01T03:28:52.187Z,37.70
2018-03-01T03:29:24.229Z,38.00
2018-03-01T03:29:56.281Z,38.00
2018-03-01T03:30:28.359Z,38.00
2018-03-01T03:31:01.145Z,38.00
2018-03-01T03:31:33.180Z,38.00
2018-03-01T03:32:05.992Z,38.00
2018-03-01T03:32:38.063Z,37.90
2018-03-01T03:33:10.094Z,37.90
2018-03-01T03:33:42.149Z,37.90
2018-03-01T03:34:14.272Z,38.00
2018-03-01T03:34:47.061Z,38.00
2018-03-01T03:35:19.090Z,38.00
2018-03-01T03:35:51.135Z,38.00
2018-03-01T03:36:23.185Z,38.00
2018-03-01T03:36:55.200Z,38.10
2018-03-01T03:37:27.301Z,38.00
2018-03-01T03:37:59.341Z,38.00
2018-03-01T03:38:31.437Z,38.00
2018-03-01T03:39:03.486Z,38.00
2018-03-01T03:39:35.565Z,38.00
2018-03-01T03:40:07.607Z,38.00
2018-03-01T03:40:39.675Z,38.00
2018-03-01T03:41:11.768Z,38.00
2018-03-01T03:41:44.537Z,38.00
2018-03-01T03:42:16.561Z,38.00
2018-03-01T03:42:49.365Z,38.10
2018-03-01T03:43:21.464Z,38.10
2018-03-01T03:43:53.479Z,38.10
2018-03-01T03:44:25.557Z,38.10
2018-03-01T03:44:57.591Z,38.10
2018-03-01T03:45:29.619Z,38.00
2018-03-01T03:46:01.670Z,38.00
2018-03-01T03:46:33.701Z,38.00
2018-03-01T03:47:06.508Z,38.00
2018-03-01T03:47:38.553Z,38.00
2018-03-01T03:48:10.604Z,38.00
2018-03-01T03:48:42.650Z,38.00
2018-03-01T03:49:14.712Z,38.00
2018-03-01T03:49:46.763Z,38.00
2018-03-01T03:50:18.841Z,38.00
2018-03-01T03:50:50.913Z,38.00
2018-03-01T03:51:22.933Z,38.00
2018-03-01T03:51:55.017Z,38.10
2018-03-01T03:52:27.039Z,38.00
2018-03-01T03:52:59.089Z,38.00
2018-03-01T03:53:31.150Z,38.00
2018-03-01T03:54:03.291Z,38.10
2018-03-01T03:54:35.334Z,38.10
2018-03-01T03:55:07.409Z,38.10
2018-03-01T03:55:39.432Z,38.00
2018-03-01T03:56:11.464Z,38.00
2018-03-01T03:56:43.523Z,38.00
2018-03-01T03:57:15.620Z,38.10
2018-03-01T03:57:47.673Z,38.00
2018-03-01T03:58:19.711Z,38.10
2018-03-01T03:58:51.752Z,38.00
2018-03-01T03:59:23.897Z,38.00
2018-03-01T03:59:55.934Z,38.00
2018-03-01T04:00:27.999Z,38.00
2018-03-01T04:01:00.043Z,38.00
2018-03-01T04:01:32.117Z,38.00
2018-03-01T04:02:04.152Z,38.00
2018-03-01T04:02:36.240Z,38.10
2018-03-01T04:03:08.287Z,38.00
2018-03-01T04:03:40.327Z,38.60
2018-03-01T04:04:12.404Z,38.10
2018-03-01T04:04:44.449Z,38.10
2018-03-01T04:05:16.494Z,38.10
2018-03-01T04:05:48.564Z,38.10
2018-03-01T04:06:21.415Z,38.20
2018-03-01T04:06:53.553Z,38.10
2018-03-01T04:07:25.660Z,38.10
2018-03-01T04:07:57.828Z,38.10
2018-03-01T04:08:29.898Z,38.10
2018-03-01T04:09:01.989Z,38.10
2018-03-01T04:09:34.106Z,38.10
2018-03-01T04:10:06.139Z,38.10
2018-03-01T04:10:38.162Z,38.20
2018-03-01T04:11:10.965Z,38.20
2018-03-01T04:11:42.996Z,38.20
2018-03-01T04:12:15.164Z,38.20
2018-03-01T04:12:47.949Z,38.20
2018-03-01T04:13:19.974Z,38.20
2018-03-01T04:13:52.015Z,38.20
2018-03-01T04:14:24.074Z,38.20
2018-03-01T04:14:56.144Z,38.20
2018-03-01T04:15:28.186Z,38.20
2018-03-01T04:16:00.284Z,38.20
2018-03-01T04:16:32.324Z,38.20
2018-03-01T04:17:04.398Z,38.20
2018-03-01T04:17:36.470Z,38.20
2018-03-01T04:18:09.268Z,38.20
2018-03-01T04:18:41.296Z,38.20
2018-03-01T04:19:14.116Z,38.20
2018-03-01T04:19:46.230Z,38.20
2018-03-01T04:20:19.015Z,38.30
2018-03-01T04:20:51.042Z,38.20
2018-03-01T04:21:23.081Z,38.20
2018-03-01T04:21:55.904Z,38.20
2018-03-01T04:22:27.928Z,38.20
2018-03-01T04:22:59.983Z,38.20
2018-03-01T04:23:32.021Z,38.20
2018-03-01T04:24:04.104Z,38.20
2018-03-01T04:24:36.139Z,38.20
2018-03-01T04:25:08.220Z,38.20
2018-03-01T04:25:40.351Z,38.20
2018-03-01T04:26:12.401Z,38.10
2018-03-01T04:26:44.482Z,38.20
2018-03-01T04:27:16.522Z,38.20
2018-03-01T04:27:48.624Z,38.20
2018-03-01T04:28:20.641Z,38.20
2018-03-01T04:28:52.742Z,38.20
2018-03-01T04:29:24.803Z,38.20
2018-03-01T04:29:56.982Z,38.20
2018-03-01T04:30:29.061Z,38.20
2018-03-01T04:31:01.145Z,38.20
2018-03-01T04:31:33.932Z,38.20
2018-03-01T04:32:05.970Z,38.20
2018-03-01T04:32:38.002Z,38.20
2018-03-01T04:33:10.034Z,38.20
2018-03-01T04:33:42.065Z,38.20
2018-03-01T04:34:14.167Z,38.30
2018-03-01T04:34:47.002Z,38.20
2018-03-01T04:35:19.028Z,38.20
2018-03-01T04:35:51.092Z,38.20
2018-03-01T04:36:23.115Z,38.30
2018-03-01T04:36:55.153Z,38.30
2018-03-01T04:37:28.045Z,38.30
2018-03-01T04:38:00.078Z,38.20
2018-03-01T04:38:32.166Z,38.30
2018-03-01T04:39:04.181Z,38.30
2018-03-01T04:39:36.283Z,38.20
2018-03-01T04:40:08.329Z,38.30
2018-03-01T04:40:40.357Z,38.30
2018-03-01T04:41:12.390Z,38.30
2018-03-01T04:41:44.459Z,38.30
2018-03-01T04:42:16.531Z,38.30
2018-03-01T04:42:48.608Z,38.30
2018-03-01T04:43:20.693Z,38.30
2018-03-01T04:43:53.540Z,38.20
2018-03-01T04:44:25.545Z,38.20
2018-03-01T04:44:57.593Z,38.20
2018-03-01T04:45:29.702Z,38.20
2018-03-01T04:46:01.765Z,38.20
2018-03-01T04:46:33.833Z,38.20
2018-03-01T04:47:05.927Z,38.20
2018-03-01T04:47:37.949Z,38.20
2018-03-01T04:48:10.020Z,38.20
2018-03-01T04:48:42.029Z,38.30
2018-03-01T04:49:14.147Z,38.30
2018-03-01T04:49:46.166Z,38.20
2018-03-01T04:50:18.337Z,38.20
2018-03-01T04:50:50.384Z,38.20
2018-03-01T04:51:22.486Z,38.20
2018-03-01T04:51:54.524Z,38.30
2018-03-01T04:52:26.564Z,38.30
2018-03-01T04:52:58.666Z,38.30
2018-03-01T04:53:30.718Z,38.20
2018-03-01T04:54:02.785Z,38.30
2018-03-01T04:54:34.918Z,38.30
2018-03-01T04:55:06.990Z,38.30
2018-03-01T04:55:39.023Z,38.30
2018-03-01T04:56:11.073Z,38.30
2018-03-01T04:56:43.158Z,38.30
2018-03-01T04:57:15.256Z,38.30
2018-03-01T04:57:47.290Z,38.30
2018-03-01T04:58:19.315Z,38.30
2018-03-01T04:58:51.395Z,38.30
2018-03-01T04:59:23.401Z,38.20
2018-03-01T04:59:55.445Z,38.30
2018-03-01T05:00:27.539Z,38.30
2018-03-01T05:00:59.579Z,38.20
2018-03-01T05:01:31.613Z,38.20
2018-03-01T05:02:03.631Z,38.20
2018-03-01T05:02:35.688Z,38.20
2018-03-01T05:03:07.714Z,38.30
2018-03-01T05:03:40.659Z,38.30
2018-03-01T05:04:12.678Z,38.30
2018-03-01T05:04:44.714Z,38.30
2018-03-01T05:05:16.961Z,38.30
2018-03-01T05:05:49.775Z,38.30
2018-03-01T05:06:21.852Z,38.30
2018-03-01T05:06:53.964Z,38.30
2018-03-01T05:07:26.017Z,38.30
2018-03-01T05:07:58.059Z,38.30
2018-03-01T05:08:30.108Z,38.20
2018-03-01T05:09:02.153Z,38.30
2018-03-01T05:09:34.212Z,38.30
2018-03-01T05:10:06.331Z,38.30
2018-03-01T05:10:39.141Z,38.40
2018-03-01T05:11:11.184Z,38.30
2018-03-01T05:11:43.252Z,38.40
2018-03-01T05:12:15.341Z,38.30
2018-03-01T05:12:47.471Z,38.30
2018-03-01T05:13:19.539Z,38.30
2018-03-01T05:13:51.608Z,38.30
2018-03-01T05:14:23.611Z,38.30
2018-03-01T05:14:55.676Z,38.30
2018-03-01T05:15:27.721Z,38.50
2018-03-01T05:15:59.768Z,38.40
2018-03-01T05:16:31.792Z,38.40
2018-03-01T05:17:03.899Z,38.40
2018-03-01T05:17:35.928Z,38.40
2018-03-01T05:18:07.986Z,38.30
2018-03-01T05:18:40.028Z,38.30
2018-03-01T05:19:12.114Z,38.30
2018-03-01T05:19:44.187Z,38.30
2018-03-01T05:20:16.979Z,38.30
2018-03-01T05:20:49.090Z,38.30
2018-03-01T05:21:21.173Z,38.40
2018-03-01T05:21:53.212Z,38.40
2018-03-01T05:22:25.335Z,38.40
2018-03-01T05:22:57.432Z,38.40
2018-03-01T05:23:30.292Z,38.40
2018-03-01T05:24:03.133Z,38.40
2018-03-01T05:24:35.150Z,38.40
2018-03-01T05:25:07.194Z,38.40
2018-03-01T05:25:39.243Z,38.40
2018-03-01T05:26:11.358Z,38.40
2018-03-01T05:26:44.259Z,38.40
2018-03-01T05:27:16.289Z,38.30
2018-03-01T05:27:48.376Z,38.30
2018-03-01T05:28:20.520Z,38.30
2018-03-01T05:28:52.559Z,38.30
2018-03-01T05:29:24.680Z,38.40
2018-03-01T05:29:56.704Z,38.40
2018-03-01T05:30:28.745Z,38.40
2018-03-01T05:31:00.785Z,38.30
2018-03-01T05:31:32.819Z,38.40
2018-03-01T05:32:04.921Z,39.70
2018-03-01T05:32:37.036Z,40.50
2018-03-01T05:33:09.087Z,40.50
2018-03-01T05:33:41.125Z,39.90
2018-03-01T05:34:13.186Z,39.10
2018-03-01T05:34:45.210Z,38.10
2018-03-01T05:35:18.044Z,37.10
2018-03-01T05:35:50.163Z,37.10
2018-03-01T05:36:22.944Z,37.00
2018-03-01T05:36:54.988Z,37.00
2018-03-01T05:37:27.054Z,36.80
2018-03-01T05:37:59.100Z,36.50
2018-03-01T05:38:31.191Z,36.10
2018-03-01T05:39:03.208Z,36.30
2018-03-01T05:39:35.234Z,36.10
2018-03-01T05:40:07.275Z,36.90
2018-03-01T05:40:39.338Z,36.20
2018-03-01T05:41:11.435Z,37.70
2018-03-01T05:41:43.490Z,36.20
2018-03-01T05:42:15.594Z,35.60
2018-03-01T05:42:47.939Z,35.00
2018-03-01T05:43:20.830Z,34.90
2018-03-01T05:43:52.895Z,34.90
2018-03-01T05:44:25.038Z,34.80
2018-03-01T05:44:57.067Z,34.60
2018-03-01T05:45:29.094Z,34.70
2018-03-01T05:46:01.225Z,34.10
2018-03-01T05:46:33.369Z,33.40
2018-03-01T05:47:05.453Z,33.60
2018-03-01T05:47:37.664Z,33.20
2018-03-01T05:48:09.785Z,33.10
2018-03-01T05:48:41.841Z,33.10
2018-03-01T05:49:14.757Z,32.90
2018-03-01T05:49:47.593Z,32.40
2018-03-01T05:50:19.899Z,32.40
2018-03-01T05:50:52.050Z,32.20
2018-03-01T05:51:24.112Z,32.00
2018-03-01T05:51:56.227Z,31.80
2018-03-01T05:52:28.350Z,31.90
2018-03-01T05:53:00.501Z,31.50
2018-03-01T05:53:33.373Z,31.70
2018-03-01T05:54:05.444Z,31.60
2018-03-01T05:54:37.489Z,31.70
2018-03-01T05:55:09.590Z,32.00
2018-03-01T05:55:41.702Z,31.20
2018-03-01T05:56:13.740Z,30.70
2018-03-01T05:56:46.765Z,30.40
2018-03-01T05:57:18.875Z,30.30
2018-03-01T05:57:50.933Z,30.00
2018-03-01T05:58:23.020Z,29.90
2018-03-01T05:58:55.062Z,29.80
2018-03-01T05:59:27.225Z,29.60
2018-03-01T05:59:59.345Z,29.80
2018-03-01T06:00:31.380Z,29.50
2018-03-01T06:01:03.463Z,29.70
2018-03-01T06:01:35.499Z,29.50
2018-03-01T06:02:07.537Z,29.40
2018-03-01T06:02:39.572Z,29.20
2018-03-01T06:03:12.384Z,28.80
2018-03-01T06:03:44.495Z,28.80
2018-03-01T06:04:16.732Z,28.80
2018-03-01T06:04:48.770Z,29.00
2018-03-01T06:05:20.815Z,29.80
2018-03-01T06:05:52.862Z,30.40
2018-03-01T06:06:24.905Z,31.10
2018-03-01T06:06:56.931Z,31.60
2018-03-01T06:07:28.984Z,31.90
2018-03-01T06:08:01.029Z,31.40
2018-03-01T06:08:33.073Z,31.40
2018-03-01T06:09:05.120Z,31.60
2018-03-01T06:09:37.165Z,31.70
2018-03-01T06:10:10.058Z,31.80
2018-03-01T06:10:42.193Z,31.80
2018-03-01T06:11:15.014Z,32.00
2018-03-01T06:11:47.090Z,31.90
2018-03-01T06:12:19.178Z,32.00
2018-03-01T06:12:51.210Z,31.90
2018-03-01T06:13:24.000Z,32.00
2018-03-01T06:13:56.159Z,31.90
2018-03-01T06:14:28.211Z,32.10
2018-03-01T06:15:00.260Z,32.00
2018-03-01T06:15:32.366Z,32.10
2018-03-01T06:16:04.401Z,32.10
2018-03-01T06:16:36.428Z,32.10
2018-03-01T06:17:08.495Z,32.20
2018-03-01T06:17:40.546Z,32.30
2018-03-01T06:18:12.584Z,32.30
2018-03-01T06:18:44.626Z,32.30
2018-03-01T06:19:16.671Z,32.30
2018-03-01T06:19:48.706Z,32.40
2018-03-01T06:20:21.760Z,32.40
2018-03-01T06:20:53.757Z,32.40
2018-03-01T06:21:25.790Z,32.50
2018-03-01T06:21:57.850Z,32.70
2018-03-01T06:22:29.931Z,32.70
2018-03-01T06:23:01.937Z,32.80
2018-03-01T06:23:34.750Z,32.90
2018-03-01T06:24:06.773Z,32.90
2018-03-01T06:24:38.814Z,33.10
2018-03-01T06:25:10.888Z,33.10
2018-03-01T06:25:42.925Z,33.40
2018-03-01T06:26:14.964Z,33.40
2018-03-01T06:26:47.771Z,33.60
2018-03-01T06:27:19.804Z,33.60
2018-03-01T06:27:51.964Z,33.70
2018-03-01T06:28:24.018Z,33.90
2018-03-01T06:28:56.048Z,33.80
2018-03-01T06:29:28.103Z,33.90
2018-03-01T06:30:00.163Z,34.00
2018-03-01T06:30:32.202Z,34.10
2018-03-01T06:31:05.026Z,34.30
2018-03-01T06:31:37.043Z,34.30
2018-03-01T06:32:09.159Z,34.30
2018-03-01T06:32:41.172Z,34.40
2018-03-01T06:33:13.222Z,34.40
2018-03-01T06:33:45.243Z,34.50
2018-03-01T06:34:17.279Z,34.60
2018-03-01T06:34:49.324Z,34.60
2018-03-01T06:35:22.167Z,34.90
2018-03-01T06:35:54.190Z,34.80
2018-03-01T06:36:26.223Z,34.80
2018-03-01T06:36:58.268Z,34.80
2018-03-01T06:37:30.306Z,35.00
2018-03-01T06:38:02.362Z,35.10
2018-03-01T06:38:34.406Z,35.10
2018-03-01T06:39:06.493Z,35.20
2018-03-01T06:39:38.508Z,35.30
2018-03-01T06:40:11.314Z,35.40
2018-03-01T06:40:43.514Z,35.40
2018-03-01T06:41:15.569Z,35.40
2018-03-01T06:41:48.371Z,35.50
2018-03-01T06:42:20.406Z,35.50
2018-03-01T06:42:53.231Z,35.60
2018-03-01T06:43:25.296Z,35.60
2018-03-01T06:43:57.350Z,35.70
2018-03-01T06:44:29.392Z,35.70
2018-03-01T06:45:01.421Z,35.70
2018-03-01T06:45:33.517Z,35.80
2018-03-01T06:46:05.566Z,35.80
2018-03-01T06:46:37.711Z,35.90
2018-03-01T06:47:09.716Z,36.00
2018-03-01T06:47:41.736Z,36.00
2018-03-01T06:48:14.537Z,36.10
2018-03-01T06:48:46.584Z,36.10
2018-03-01T06:49:18.646Z,36.10
2018-03-01T06:49:50.669Z,36.10
2018-03-01T06:50:22.755Z,36.10
2018-03-01T06:50:55.521Z,36.20
2018-03-01T06:51:27.548Z,36.10
2018-03-01T06:51:59.598Z,36.20
2018-03-01T06:52:31.649Z,36.30
2018-03-01T06:53:03.680Z,36.30
2018-03-01T06:53:36.558Z,36.40
2018-03-01T06:54:09.408Z,36.50
2018-03-01T06:54:41.448Z,36.40